<?xml version="1.0" encoding="UTF-8"?>
<gpx creator="Wikiloc - https://www.wikiloc.com" version="1.1" xmlns="http://www.topografix.com/GPX/1/1" xmlns:xsi="http://www.w3.org/2001/XMLSchema-instance" xsi:schemaLocation="http://www.topografix.com/GPX/1/1 http://www.topografix.com/GPX/1/1/gpx.xsd">
  <wpt lat="38.381979" lon="-6.590498">
    <ele>0.0</ele>
    <time>2011-07-25T20:11:55Z</time>
    <name>BURGUILLOS DEL CERRO</name>
    <cmt></cmt>
    <desc></desc>
  </wpt>
  <wpt lat="38.386180" lon="-6.590981">
    <ele>0.0</ele>
    <time>2011-07-25T20:12:09Z</time>
    <name>CASTILLO</name>
    <cmt></cmt>
    <desc></desc>
  </wpt>
  <wpt lat="38.385718" lon="-6.598969">
    <ele>0.0</ele>
    <time>2011-07-25T20:14:21Z</time>
    <name>CTRA</name>
    <cmt></cmt>
    <desc></desc>
  </wpt>
  <wpt lat="38.387054" lon="-6.599471">
    <ele>0.0</ele>
    <time>2011-07-25T20:14:29Z</time>
    <name>CTRA</name>
    <cmt></cmt>
    <desc></desc>
  </wpt>
  <wpt lat="38.382205" lon="-6.611247">
    <ele>0.0</ele>
    <time>2011-07-25T20:15:11Z</time>
    <name>SIERRA DEL CORDEL</name>
    <cmt></cmt>
    <desc></desc>
  </wpt>
  <wpt lat="38.365010" lon="-6.617920">
    <ele>0.0</ele>
    <time>2011-07-25T20:15:29Z</time>
    <name>CTRA</name>
    <cmt></cmt>
    <desc></desc>
  </wpt>
  <wpt lat="38.365059" lon="-6.616343">
    <ele>0.0</ele>
    <time>2011-07-25T20:15:33Z</time>
    <name>CTRA</name>
    <cmt></cmt>
    <desc></desc>
  </wpt>
  <wpt lat="38.360481" lon="-6.619890">
    <ele>0.0</ele>
    <time>2011-07-25T20:15:45Z</time>
    <name>VIAS TREN</name>
    <cmt></cmt>
    <desc></desc>
  </wpt>
  <wpt lat="38.368769" lon="-6.600005">
    <ele>0.0</ele>
    <time>2011-07-25T20:15:57Z</time>
    <name>VIAS TREN</name>
    <cmt></cmt>
    <desc></desc>
  </wpt>
  <trk>
    <name>PR-BA 154 'Sierra del Cordel' (Burguillos del Cerro)</name>
    <cmt>http://fexme.com/buscar-senderos/</cmt>
    <desc>http://fexme.com/buscar-senderos/</desc>
    <trkseg>
      <trkpt lat="38.378652" lon="-6.594850">
        <ele>401.5</ele>
        <time>2011-03-19T09:07:36Z</time>
      </trkpt>
      <trkpt lat="38.378654" lon="-6.594853">
        <ele>401.5</ele>
        <time>2011-03-19T09:09:26Z</time>
      </trkpt>
      <trkpt lat="38.377761" lon="-6.594921">
        <ele>399.6</ele>
        <time>2011-03-19T09:11:16Z</time>
      </trkpt>
      <trkpt lat="38.377158" lon="-6.595118">
        <ele>398.6</ele>
        <time>2011-03-19T09:13:06Z</time>
      </trkpt>
      <trkpt lat="38.375674" lon="-6.596353">
        <ele>393.3</ele>
        <time>2011-03-19T09:14:56Z</time>
      </trkpt>
      <trkpt lat="38.374808" lon="-6.596737">
        <ele>393.8</ele>
        <time>2011-03-19T09:16:46Z</time>
      </trkpt>
      <trkpt lat="38.373849" lon="-6.596953">
        <ele>393.3</ele>
        <time>2011-03-19T09:18:36Z</time>
      </trkpt>
      <trkpt lat="38.372886" lon="-6.598023">
        <ele>397.2</ele>
        <time>2011-03-19T09:20:26Z</time>
      </trkpt>
      <trkpt lat="38.371226" lon="-6.598565">
        <ele>396.7</ele>
        <time>2011-03-19T09:22:16Z</time>
      </trkpt>
      <trkpt lat="38.368810" lon="-6.600003">
        <ele>396.2</ele>
        <time>2011-03-19T09:24:06Z</time>
      </trkpt>
      <trkpt lat="38.366818" lon="-6.602486">
        <ele>395.2</ele>
        <time>2011-03-19T09:25:56Z</time>
      </trkpt>
      <trkpt lat="38.366006" lon="-6.604064">
        <ele>390.4</ele>
        <time>2011-03-19T09:27:46Z</time>
      </trkpt>
      <trkpt lat="38.365256" lon="-6.607267">
        <ele>384.7</ele>
        <time>2011-03-19T09:29:36Z</time>
      </trkpt>
      <trkpt lat="38.364267" lon="-6.610704">
        <ele>385.1</ele>
        <time>2011-03-19T09:31:26Z</time>
      </trkpt>
      <trkpt lat="38.363935" lon="-6.611479">
        <ele>385.1</ele>
        <time>2011-03-19T09:33:16Z</time>
      </trkpt>
      <trkpt lat="38.362496" lon="-6.613851">
        <ele>384.2</ele>
        <time>2011-03-19T09:35:06Z</time>
      </trkpt>
      <trkpt lat="38.362481" lon="-6.613860">
        <ele>384.2</ele>
        <time>2011-03-19T09:36:56Z</time>
      </trkpt>
      <trkpt lat="38.360657" lon="-6.617255">
        <ele>382.3</ele>
        <time>2011-03-19T09:38:46Z</time>
      </trkpt>
      <trkpt lat="38.360458" lon="-6.619948">
        <ele>379.4</ele>
        <time>2011-03-19T09:40:36Z</time>
      </trkpt>
      <trkpt lat="38.360856" lon="-6.619749">
        <ele>382.7</ele>
        <time>2011-03-19T09:42:26Z</time>
      </trkpt>
      <trkpt lat="38.361172" lon="-6.619496">
        <ele>383.2</ele>
        <time>2011-03-19T09:44:16Z</time>
      </trkpt>
      <trkpt lat="38.362204" lon="-6.619105">
        <ele>390.0</ele>
        <time>2011-03-19T09:46:06Z</time>
      </trkpt>
      <trkpt lat="38.362460" lon="-6.618899">
        <ele>390.9</ele>
        <time>2011-03-19T09:47:56Z</time>
      </trkpt>
      <trkpt lat="38.364090" lon="-6.616887">
        <ele>406.3</ele>
        <time>2011-03-19T09:49:46Z</time>
      </trkpt>
      <trkpt lat="38.364802" lon="-6.616772">
        <ele>407.7</ele>
        <time>2011-03-19T09:51:36Z</time>
      </trkpt>
      <trkpt lat="38.365042" lon="-6.616427">
        <ele>405.8</ele>
        <time>2011-03-19T09:53:26Z</time>
      </trkpt>
      <trkpt lat="38.364975" lon="-6.618018">
        <ele>404.9</ele>
        <time>2011-03-19T09:55:16Z</time>
      </trkpt>
      <trkpt lat="38.365416" lon="-6.618049">
        <ele>413.5</ele>
        <time>2011-03-19T09:57:06Z</time>
      </trkpt>
      <trkpt lat="38.365987" lon="-6.617650">
        <ele>427.9</ele>
        <time>2011-03-19T09:58:56Z</time>
      </trkpt>
      <trkpt lat="38.366404" lon="-6.616662">
        <ele>436.1</ele>
        <time>2011-03-19T10:00:46Z</time>
      </trkpt>
      <trkpt lat="38.366778" lon="-6.616099">
        <ele>436.6</ele>
        <time>2011-03-19T10:02:36Z</time>
      </trkpt>
      <trkpt lat="38.367652" lon="-6.615506">
        <ele>447.2</ele>
        <time>2011-03-19T10:04:26Z</time>
      </trkpt>
      <trkpt lat="38.369601" lon="-6.614798">
        <ele>465.9</ele>
        <time>2011-03-19T10:06:16Z</time>
      </trkpt>
      <trkpt lat="38.370412" lon="-6.615062">
        <ele>481.3</ele>
        <time>2011-03-19T10:08:06Z</time>
      </trkpt>
      <trkpt lat="38.371628" lon="-6.614976">
        <ele>481.3</ele>
        <time>2011-03-19T10:09:56Z</time>
      </trkpt>
      <trkpt lat="38.374002" lon="-6.614216">
        <ele>496.7</ele>
        <time>2011-03-19T10:11:46Z</time>
      </trkpt>
      <trkpt lat="38.376125" lon="-6.613475">
        <ele>512.0</ele>
        <time>2011-03-19T10:13:36Z</time>
      </trkpt>
      <trkpt lat="38.377057" lon="-6.613454">
        <ele>508.7</ele>
        <time>2011-03-19T10:15:26Z</time>
      </trkpt>
      <trkpt lat="38.377959" lon="-6.613774">
        <ele>521.2</ele>
        <time>2011-03-19T10:17:16Z</time>
      </trkpt>
      <trkpt lat="38.378636" lon="-6.613371">
        <ele>522.1</ele>
        <time>2011-03-19T10:19:06Z</time>
      </trkpt>
      <trkpt lat="38.379086" lon="-6.613031">
        <ele>524.5</ele>
        <time>2011-03-19T10:20:56Z</time>
      </trkpt>
      <trkpt lat="38.380242" lon="-6.612641">
        <ele>525.5</ele>
        <time>2011-03-19T10:22:46Z</time>
      </trkpt>
      <trkpt lat="38.381852" lon="-6.611712">
        <ele>526.0</ele>
        <time>2011-03-19T10:24:36Z</time>
      </trkpt>
      <trkpt lat="38.382469" lon="-6.611663">
        <ele>532.7</ele>
        <time>2011-03-19T10:26:26Z</time>
      </trkpt>
      <trkpt lat="38.383421" lon="-6.611242">
        <ele>533.7</ele>
        <time>2011-03-19T10:28:16Z</time>
      </trkpt>
      <trkpt lat="38.385792" lon="-6.611654">
        <ele>525.5</ele>
        <time>2011-03-19T10:30:06Z</time>
      </trkpt>
      <trkpt lat="38.386836" lon="-6.611925">
        <ele>517.8</ele>
        <time>2011-03-19T10:31:56Z</time>
      </trkpt>
      <trkpt lat="38.388109" lon="-6.612018">
        <ele>504.8</ele>
        <time>2011-03-19T10:33:46Z</time>
      </trkpt>
      <trkpt lat="38.388129" lon="-6.611968">
        <ele>505.3</ele>
        <time>2011-03-19T10:35:36Z</time>
      </trkpt>
      <trkpt lat="38.389782" lon="-6.612472">
        <ele>508.2</ele>
        <time>2011-03-19T10:37:26Z</time>
      </trkpt>
      <trkpt lat="38.390195" lon="-6.612670">
        <ele>503.9</ele>
        <time>2011-03-19T10:39:16Z</time>
      </trkpt>
      <trkpt lat="38.391303" lon="-6.612592">
        <ele>491.9</ele>
        <time>2011-03-19T10:41:06Z</time>
      </trkpt>
      <trkpt lat="38.391403" lon="-6.612405">
        <ele>491.4</ele>
        <time>2011-03-19T10:42:56Z</time>
      </trkpt>
      <trkpt lat="38.390873" lon="-6.611671">
        <ele>490.9</ele>
        <time>2011-03-19T10:44:46Z</time>
      </trkpt>
      <trkpt lat="38.390122" lon="-6.610910">
        <ele>483.2</ele>
        <time>2011-03-19T10:46:36Z</time>
      </trkpt>
      <trkpt lat="38.389863" lon="-6.609181">
        <ele>476.5</ele>
        <time>2011-03-19T10:48:26Z</time>
      </trkpt>
      <trkpt lat="38.389581" lon="-6.608673">
        <ele>470.7</ele>
        <time>2011-03-19T10:50:16Z</time>
      </trkpt>
      <trkpt lat="38.389405" lon="-6.607420">
        <ele>456.3</ele>
        <time>2011-03-19T10:52:06Z</time>
      </trkpt>
      <trkpt lat="38.388531" lon="-6.606322">
        <ele>445.2</ele>
        <time>2011-03-19T10:53:56Z</time>
      </trkpt>
      <trkpt lat="38.387820" lon="-6.603786">
        <ele>432.2</ele>
        <time>2011-03-19T10:55:46Z</time>
      </trkpt>
      <trkpt lat="38.387075" lon="-6.602716">
        <ele>428.4</ele>
        <time>2011-03-19T10:57:36Z</time>
      </trkpt>
      <trkpt lat="38.386829" lon="-6.600953">
        <ele>427.4</ele>
        <time>2011-03-19T10:59:26Z</time>
      </trkpt>
      <trkpt lat="38.386837" lon="-6.600405">
        <ele>426.5</ele>
        <time>2011-03-19T11:01:16Z</time>
      </trkpt>
      <trkpt lat="38.387039" lon="-6.599520">
        <ele>419.8</ele>
        <time>2011-03-19T11:03:06Z</time>
      </trkpt>
      <trkpt lat="38.385701" lon="-6.599019">
        <ele>415.9</ele>
        <time>2011-03-19T11:04:56Z</time>
      </trkpt>
      <trkpt lat="38.385991" lon="-6.598761">
        <ele>411.6</ele>
        <time>2011-03-19T11:06:46Z</time>
      </trkpt>
      <trkpt lat="38.385786" lon="-6.597753">
        <ele>414.5</ele>
        <time>2011-03-19T11:08:36Z</time>
      </trkpt>
      <trkpt lat="38.384058" lon="-6.595678">
        <ele>430.3</ele>
        <time>2011-03-19T11:10:26Z</time>
      </trkpt>
      <trkpt lat="38.384007" lon="-6.595058">
        <ele>439.9</ele>
        <time>2011-03-19T11:12:16Z</time>
      </trkpt>
      <trkpt lat="38.384149" lon="-6.594636">
        <ele>445.2</ele>
        <time>2011-03-19T11:14:06Z</time>
      </trkpt>
      <trkpt lat="38.383501" lon="-6.594150">
        <ele>447.6</ele>
        <time>2011-03-19T11:15:56Z</time>
      </trkpt>
      <trkpt lat="38.383899" lon="-6.593272">
        <ele>455.8</ele>
        <time>2011-03-19T11:17:46Z</time>
      </trkpt>
      <trkpt lat="38.384462" lon="-6.593199">
        <ele>464.5</ele>
        <time>2011-03-19T11:19:36Z</time>
      </trkpt>
      <trkpt lat="38.385342" lon="-6.593240">
        <ele>477.4</ele>
        <time>2011-03-19T11:21:26Z</time>
      </trkpt>
      <trkpt lat="38.385519" lon="-6.592187">
        <ele>501.0</ele>
        <time>2011-03-19T11:23:16Z</time>
      </trkpt>
      <trkpt lat="38.385840" lon="-6.590933">
        <ele>521.0</ele>
        <time>2011-03-19T11:25:06Z</time>
      </trkpt>
      <trkpt lat="38.386109" lon="-6.591167">
        <ele>530.4</ele>
        <time>2011-03-19T11:26:56Z</time>
      </trkpt>
      <trkpt lat="38.386003" lon="-6.591301">
        <ele>534.0</ele>
        <time>2011-03-19T11:28:46Z</time>
      </trkpt>
      <trkpt lat="38.386019" lon="-6.591321">
        <ele>535.0</ele>
        <time>2011-03-19T11:30:36Z</time>
      </trkpt>
      <trkpt lat="38.386101" lon="-6.591095">
        <ele>538.7</ele>
        <time>2011-03-19T11:32:26Z</time>
      </trkpt>
      <trkpt lat="38.386159" lon="-6.591056">
        <ele>538.5</ele>
        <time>2011-03-19T11:34:16Z</time>
      </trkpt>
      <trkpt lat="38.386220" lon="-6.591518">
        <ele>540.1</ele>
        <time>2011-03-19T11:36:06Z</time>
      </trkpt>
      <trkpt lat="38.386508" lon="-6.591292">
        <ele>541.8</ele>
        <time>2011-03-19T11:37:56Z</time>
      </trkpt>
      <trkpt lat="38.386390" lon="-6.591351">
        <ele>542.5</ele>
        <time>2011-03-19T11:39:46Z</time>
      </trkpt>
      <trkpt lat="38.386408" lon="-6.591435">
        <ele>540.4</ele>
        <time>2011-03-19T11:41:36Z</time>
      </trkpt>
      <trkpt lat="38.386327" lon="-6.591240">
        <ele>539.8</ele>
        <time>2011-03-19T11:43:26Z</time>
      </trkpt>
      <trkpt lat="38.385926" lon="-6.590861">
        <ele>532.1</ele>
        <time>2011-03-19T11:45:16Z</time>
      </trkpt>
      <trkpt lat="38.385554" lon="-6.591637">
        <ele>516.4</ele>
        <time>2011-03-19T11:47:06Z</time>
      </trkpt>
      <trkpt lat="38.385404" lon="-6.593059">
        <ele>481.3</ele>
        <time>2011-03-19T11:48:56Z</time>
      </trkpt>
      <trkpt lat="38.383844" lon="-6.593324">
        <ele>457.7</ele>
        <time>2011-03-19T11:50:46Z</time>
      </trkpt>
      <trkpt lat="38.383405" lon="-6.594206">
        <ele>448.1</ele>
        <time>2011-03-19T11:52:36Z</time>
      </trkpt>
      <trkpt lat="38.382935" lon="-6.594522">
        <ele>444.3</ele>
        <time>2011-03-19T11:54:26Z</time>
      </trkpt>
      <trkpt lat="38.379791" lon="-6.595964">
        <ele>415.9</ele>
        <time>2011-03-19T11:56:16Z</time>
      </trkpt>
      <trkpt lat="38.378890" lon="-6.594913">
        <ele>414.5</ele>
        <time>2011-03-19T11:58:06Z</time>
      </trkpt>
      <trkpt lat="38.378368" lon="-6.594929">
        <ele>409.7</ele>
        <time>2011-03-19T11:59:56Z</time>
      </trkpt>
    </trkseg>
  </trk></gpx>